Time;durP1;ratioP1;P1;durP2;ratioP2;P2;SDS_P1;SDS_P2;PMS_P1;PMS_P2;Temp;Humidity;BMP_temperature;BMP_pressure;BME280_temperature;BME280_humidity;BME280_pressure;Samples;Min_cycle;Max_cycle;Signal;HPM_P1;HPM_P2
2023/06/15 00:00:49;;;;;;;18.73;12.47;;;;;;;;;;1791397;79;25370;-53
2023/06/15 00:03:19;;;;;;;35.40;32.30;;;;;;;;;;1791386;79;25550;-49
2023/06/15 00:05:46;;;;;;;89.55;83.35;;;;;;;;;;1791223;80;25526;-50
2023/06/15 00:08:14;;;;;;;60.28;55.60;;;;;;;;;;1791263;80;27484;-50
2023/06/15 00:10:41;;;;;;;88.90;82.37;;;;;;;;;;1791162;80;25509;-52
2023/06/15 00:13:07;;;;;;;87.08;80.90;;;;;;;;;;1791271;80;25442;-50
2023/06/15 00:15:36;;;;;;;76.33;70.50;;;;;;;;;;1791215;80;25497;-51
2023/06/15 00:18:05;;;;;;;27.32;14.70;;;;;;;;;;1791402;80;25513;-51
2023/06/15 00:20:34;;;;;;;22.00;15.30;;;;;;;;;;1791356;79;27350;-52
2023/06/15 00:23:01;;;;;;;19.65;13.72;;;;;;;;;;1791292;80;33812;-50
2023/06/15 00:25:30;;;;;;;19.10;13.85;;;;;;;;;;1791219;79;25474;-50
2023/06/15 00:27:58;;;;;;;18.82;14.33;;;;;;;;;;1791360;79;25549;-50
2023/06/15 00:30:24;;;;;;;23.92;15.43;;;;;;;;;;1791238;80;25344;-50
2023/06/15 00:32:51;;;;;;;58.25;53.52;;;;;;;;;;1791226;80;27342;-50
2023/06/15 00:35:18;;;;;;;33.20;30.30;;;;;;;;;;1791145;80;25498;-54
2023/06/15 00:37:45;;;;;;;35.40;32.08;;;;;;;;;;1791208;79;25282;-50
2023/06/15 00:40:12;;;;;;;65.95;60.92;;;;;;;;;;1791205;79;25549;-51
2023/06/15 00:42:39;;;;;;;34.48;31.40;;;;;;;;;;1791249;80;25436;-51
2023/06/15 00:45:09;;;;;;;87.57;81.28;;;;;;;;;;1791223;80;27316;-50
2023/06/15 00:47:38;;;;;;;23.77;20.32;;;;;;;;;;1791244;80;25282;-54
2023/06/15 00:50:18;;;;;;;27.15;24.43;;;;;;;;;;1791324;79;25419;-55
2023/06/15 00:52:42;;;;;;;19.50;14.25;;;;;;;;;;1789602;79;25480;-51
2023/06/15 00:55:12;;;;;;;16.27;12.93;;;;;;;;;;1791529;79;25499;-52
2023/06/15 00:57:44;;;;;;;19.70;13.55;;;;;;;;;;1791353;80;27466;-55
2023/06/15 01:00:13;;;;;;;21.52;14.63;;;;;;;;;;1791027;79;25320;-53
2023/06/15 01:02:42;;;;;;;19.02;14.47;;;;;;;;;;1790626;79;25515;-54
2023/06/15 01:05:16;;;;;;;20.95;13.78;;;;;;;;;;1791336;80;25945;-54
2023/06/15 01:07:47;;;;;;;24.57;15.60;;;;;;;;;;1791420;80;25442;-56
2023/06/15 01:10:16;;;;;;;46.15;42.50;;;;;;;;;;1791356;80;27467;-53
2023/06/15 01:12:45;;;;;;;19.82;14.15;;;;;;;;;;1791305;79;25824;-54
2023/06/15 01:15:13;;;;;;;22.70;19.35;;;;;;;;;;1791374;80;25310;-54
2023/06/15 01:17:44;;;;;;;20.15;15.35;;;;;;;;;;1791321;79;25546;-52
2023/06/15 01:20:16;;;;;;;33.00;30.08;;;;;;;;;;1791441;80;25264;-55
2023/06/15 01:22:49;;;;;;;68.62;63.13;;;;;;;;;;1790582;79;27816;-52
2023/06/15 01:25:29;;;;;;;74.72;69.07;;;;;;;;;;1736764;82;25417;-54
2023/06/15 01:27:58;;;;;;;16.77;13.45;;;;;;;;;;1736997;82;25545;-51
2023/06/15 01:30:26;;;;;;;20.70;16.02;;;;;;;;;;1736869;82;27652;-53
2023/06/15 01:32:53;;;;;;;21.93;15.38;;;;;;;;;;1737158;82;25579;-51
2023/06/15 01:35:20;;;;;;;19.05;13.90;;;;;;;;;;1736940;82;27396;-53
2023/06/15 01:37:47;;;;;;;21.57;15.63;;;;;;;;;;1736853;82;25340;-54
2023/06/15 01:40:15;;;;;;;17.40;14.53;;;;;;;;;;1736937;82;25482;-53
2023/06/15 01:42:43;;;;;;;21.75;14.63;;;;;;;;;;1736921;82;25496;-55
2023/06/15 01:45:12;;;;;;;43.25;39.48;;;;;;;;;;1736961;82;25488;-55
2023/06/15 01:47:39;;;;;;;;;;;;;;;;;;1739617;82;27344;-55
2023/06/15 01:50:10;;;;;;;17.57;13.20;;;;;;;;;;1737129;82;25601;-55
2023/06/15 01:52:38;;;;;;;18.82;14.13;;;;;;;;;;1737234;82;25430;-54
2023/06/15 01:55:07;;;;;;;21.57;16.15;;;;;;;;;;1736974;82;25545;-55
2023/06/15 01:57:37;;;;;;;22.67;15.50;;;;;;;;;;1737147;82;25518;-52
2023/06/15 02:00:07;;;;;;;18.75;14.28;;;;;;;;;;1736983;82;27445;-53
2023/06/15 02:02:34;;;;;;;23.55;14.75;;;;;;;;;;1761203;80;25480;-55
2023/06/15 02:05:03;;;;;;;24.92;22.30;;;;;;;;;;1791334;80;25529;-56
2023/06/15 02:07:31;;;;;;;18.98;13.93;;;;;;;;;;1791413;80;25521;-56
2023/06/15 02:09:57;;;;;;;31.73;28.62;;;;;;;;;;1791346;80;25507;-52
2023/06/15 02:12:24;;;;;;;29.02;26.07;;;;;;;;;;1791314;80;27415;-53
2023/06/15 02:14:51;;;;;;;51.13;47.05;;;;;;;;;;1791233;79;25583;-54
2023/06/15 02:17:19;;;;;;;91.95;85.28;;;;;;;;;;1791319;80;25494;-54
2023/06/15 02:19:47;;;;;;;90.53;83.87;;;;;;;;;;1791384;80;25757;-55
2023/06/15 02:22:17;;;;;;;89.87;83.30;;;;;;;;;;1791581;80;25423;-52
2023/06/15 02:24:44;;;;;;;;;;;;;;;;;;1793933;79;27437;-54
2023/06/15 02:27:11;;;;;;;21.00;15.72;;;;;;;;;;1791271;79;25506;-55
2023/06/15 02:29:38;;;;;;;27.37;21.50;;;;;;;;;;1791300;79;25487;-55
2023/06/15 02:32:07;;;;;;;94.80;87.42;;;;;;;;;;1791259;80;25554;-56
2023/06/15 02:34:34;;;;;;;21.10;16.55;;;;;;;;;;1791607;80;25377;-57
2023/06/15 02:37:01;;;;;;;29.95;27.15;;;;;;;;;;1791321;80;27438;-57
2023/06/15 02:39:29;;;;;;;28.20;25.15;;;;;;;;;;1791263;79;25339;-56
2023/06/15 02:41:57;;;;;;;91.40;84.80;;;;;;;;;;1791580;79;25452;-53
2023/06/15 02:44:25;;;;;;;95.15;88.17;;;;;;;;;;1791231;80;25553;-53
2023/06/15 02:46:51;;;;;;;93.58;86.78;;;;;;;;;;1791196;80;25307;-54
2023/06/15 02:49:19;;;;;;;94.50;87.50;;;;;;;;;;1791398;79;28253;-56
2023/06/15 02:51:46;;;;;;;93.37;86.45;;;;;;;;;;1791304;80;25656;-52
2023/06/15 02:54:13;;;;;;;93.97;87.22;;;;;;;;;;1791272;80;25512;-53
2023/06/15 02:56:41;;;;;;;86.78;80.42;;;;;;;;;;1791215;80;25568;-54
2023/06/15 02:59:09;;;;;;;38.55;35.20;;;;;;;;;;1791303;79;25324;-56
2023/06/15 03:01:42;;;;;;;93.10;86.12;;;;;;;;;;1791308;80;27448;-52
2023/06/15 03:04:09;;;;;;;93.92;87.22;;;;;;;;;;1791297;79;25297;-52
2023/06/15 03:06:38;;;;;;;91.70;85.00;;;;;;;;;;1791500;80;25428;-52
2023/06/15 03:09:07;;;;;;;89.95;83.22;;;;;;;;;;1791234;80;25572;-56
2023/06/15 03:11:34;;;;;;;91.30;84.80;;;;;;;;;;1791439;80;25325;-52
2023/06/15 03:14:02;;;;;;;91.63;84.85;;;;;;;;;;1791235;79;29661;-53
2023/06/15 03:16:32;;;;;;;90.28;83.87;;;;;;;;;;1791201;80;25550;-53
2023/06/15 03:18:59;;;;;;;92.25;85.57;;;;;;;;;;1791119;79;25445;-52
2023/06/15 03:21:26;;;;;;;94.22;87.33;;;;;;;;;;1791497;79;25515;-53
2023/06/15 03:23:54;;;;;;;91.02;84.32;;;;;;;;;;1791309;80;25427;-54
2023/06/15 03:26:23;;;;;;;92.82;86.17;;;;;;;;;;1791343;80;27383;-56
2023/06/15 03:28:50;;;;;;;25.15;16.77;;;;;;;;;;1791220;79;25440;-55
2023/06/15 03:31:18;;;;;;;26.35;21.30;;;;;;;;;;1791288;79;25463;-56
2023/06/15 03:33:46;;;;;;;78.17;72.53;;;;;;;;;;1791302;80;25581;-54
2023/06/15 03:36:13;;;;;;;93.47;86.75;;;;;;;;;;1791283;79;25466;-57
2023/06/15 03:38:41;;;;;;;93.95;86.17;;;;;;;;;;1791343;80;27471;-55
2023/06/15 03:41:09;;;;;;;93.70;86.75;;;;;;;;;;1791200;80;25433;-54
2023/06/15 03:43:38;;;;;;;92.80;85.55;;;;;;;;;;1791233;80;25366;-53
2023/06/15 03:46:06;;;;;;;91.97;85.00;;;;;;;;;;1791154;80;27609;-53
2023/06/15 03:48:33;;;;;;;92.70;85.83;;;;;;;;;;1796309;79;25492;-53
2023/06/15 03:51:00;;;;;;;91.97;85.15;;;;;;;;;;1797124;79;27339;-53
2023/06/15 03:53:28;;;;;;;91.50;84.60;;;;;;;;;;1797100;79;25340;-56
2023/06/15 03:55:56;;;;;;;93.47;86.35;;;;;;;;;;1797122;79;25486;-56
2023/06/15 03:58:24;;;;;;;89.13;82.47;;;;;;;;;;1797083;79;25527;-55
2023/06/15 04:00:52;;;;;;;91.92;85.07;;;;;;;;;;1797422;79;25515;-56
2023/06/15 04:03:20;;;;;;;92.22;85.35;;;;;;;;;;1797160;79;28461;-55
2023/06/15 04:05:49;;;;;;;89.42;82.92;;;;;;;;;;1797005;79;27139;-55
2023/06/15 04:08:16;;;;;;;78.60;72.45;;;;;;;;;;1797285;79;25454;-55
2023/06/15 04:10:43;;;;;;;93.03;86.20;;;;;;;;;;1797196;79;25466;-55
2023/06/15 04:13:10;;;;;;;30.25;27.15;;;;;;;;;;1797262;79;25500;-54
2023/06/15 04:15:37;;;;;;;51.92;47.48;;;;;;;;;;1797107;79;27343;-51
2023/06/15 04:18:05;;;;;;;93.95;87.02;;;;;;;;;;1797053;79;25425;-51
2023/06/15 04:20:32;;;;;;;95.45;88.40;;;;;;;;;;1797121;79;25349;-51
2023/06/15 04:23:00;;;;;;;93.47;86.67;;;;;;;;;;1797188;79;25521;-55
2023/06/15 04:25:28;;;;;;;92.22;85.15;;;;;;;;;;1797259;79;25313;-55
2023/06/15 04:27:55;;;;;;;95.40;88.55;;;;;;;;;;1797311;79;27289;-55
2023/06/15 04:30:24;;;;;;;90.15;83.52;;;;;;;;;;1797168;79;25490;-51
2023/06/15 04:32:57;;;;;;;93.90;87.00;;;;;;;;;;1797423;79;25334;-55
2023/06/15 04:35:20;;;;;;;95.38;88.50;;;;;;;;;;1797008;79;26122;-55
2023/06/15 04:37:47;;;;;;;91.28;84.62;;;;;;;;;;1797279;79;25468;-52
2023/06/15 04:40:14;;;;;;;95.07;88.17;;;;;;;;;;1797275;79;29657;-55
2023/06/15 04:42:42;;;;;;;78.25;72.27;;;;;;;;;;1797132;79;25457;-53
2023/06/15 04:45:10;;;;;;;96.45;89.17;;;;;;;;;;1797293;79;25293;-54
2023/06/15 04:47:37;;;;;;;94.37;87.37;;;;;;;;;;1797108;79;25556;-54
2023/06/15 04:50:08;;;;;;;70.17;64.50;;;;;;;;;;1797285;79;25385;-52
2023/06/15 04:52:36;;;;;;;81.92;75.32;;;;;;;;;;1797294;79;27383;-51
2023/06/15 04:55:05;;;;;;;91.78;84.77;;;;;;;;;;1797209;79;25635;-54
2023/06/15 04:57:32;;;;;;;25.32;18.25;;;;;;;;;;1797420;79;25374;-52
2023/06/15 05:00:00;;;;;;;84.40;77.62;;;;;;;;;;1797282;79;26219;-52
2023/06/15 05:02:27;;;;;;;97.50;90.03;;;;;;;;;;1797241;79;25488;-53
2023/06/15 05:04:56;;;;;;;98.80;91.47;;;;;;;;;;1797290;79;27432;-53
2023/06/15 05:07:23;;;;;;;95.03;87.15;;;;;;;;;;1797269;79;25289;-51
2023/06/15 05:09:50;;;;;;;98.12;90.77;;;;;;;;;;1797221;79;25413;-53
2023/06/15 05:12:17;;;;;;;98.80;91.28;;;;;;;;;;1797210;79;25447;-52
2023/06/15 05:14:44;;;;;;;58.23;53.23;;;;;;;;;;1797246;79;25282;-52
2023/06/15 05:17:12;;;;;;;46.95;39.13;;;;;;;;;;1797268;79;27399;-52
2023/06/15 05:19:40;;;;;;;27.80;21.52;;;;;;;;;;1797430;79;25636;-52
2023/06/15 05:22:08;;;;;;;29.30;21.10;;;;;;;;;;1797243;79;25499;-52
2023/06/15 05:24:35;;;;;;;30.68;22.27;;;;;;;;;;1797225;79;26091;-55
2023/06/15 05:27:02;;;;;;;26.68;21.35;;;;;;;;;;1797228;79;25476;-52
2023/06/15 05:29:30;;;;;;;28.38;23.07;;;;;;;;;;1797193;79;29474;-52
2023/06/15 05:31:59;;;;;;;28.98;23.25;;;;;;;;;;1797125;79;25486;-51
2023/06/15 05:34:26;;;;;;;29.25;21.20;;;;;;;;;;1797309;79;25478;-52
2023/06/15 05:36:54;;;;;;;31.75;27.90;;;;;;;;;;1797209;79;25540;-52
2023/06/15 05:39:21;;;;;;;60.35;55.33;;;;;;;;;;1797285;79;25603;-52
2023/06/15 05:41:49;;;;;;;26.52;21.20;;;;;;;;;;1797253;79;27432;-52
2023/06/15 05:44:16;;;;;;;96.85;89.83;;;;;;;;;;1797128;79;25536;-52
2023/06/15 05:46:44;;;;;;;27.93;21.70;;;;;;;;;;1797169;79;25486;-51
2023/06/15 05:49:10;;;;;;;27.05;20.97;;;;;;;;;;1797065;79;25529;-52
2023/06/15 05:51:37;;;;;;;24.77;21.40;;;;;;;;;;1797237;79;25430;-53
2023/06/15 05:54:05;;;;;;;27.67;19.85;;;;;;;;;;1797207;79;27455;-53
2023/06/15 05:56:32;;;;;;;29.80;21.15;;;;;;;;;;1797094;79;25375;-52
2023/06/15 05:58:59;;;;;;;22.75;18.30;;;;;;;;;;1797206;79;25443;-52
2023/06/15 06:01:26;;;;;;;28.00;19.65;;;;;;;;;;1797156;79;25551;-51
2023/06/15 06:03:53;;;;;;;22.70;17.42;;;;;;;;;;1797263;79;25446;-52
2023/06/15 06:06:20;;;;;;;20.70;16.67;;;;;;;;;;1797160;79;27407;-52
2023/06/15 06:08:47;;;;;;;20.75;15.95;;;;;;;;;;1797098;79;25498;-52
2023/06/15 06:11:15;;;;;;;17.50;15.63;;;;;;;;;;1797175;79;25420;-52
2023/06/15 06:13:43;;;;;;;18.48;15.40;;;;;;;;;;1797191;79;25592;-52
2023/06/15 06:16:10;;;;;;;21.25;19.00;;;;;;;;;;1797240;79;25342;-51
2023/06/15 06:18:37;;;;;;;17.82;15.28;;;;;;;;;;1797179;79;27400;-52
2023/06/15 06:21:04;;;;;;;17.23;15.43;;;;;;;;;;1797154;79;25464;-52
2023/06/15 06:23:32;;;;;;;16.70;13.83;;;;;;;;;;1797196;79;25432;-52
2023/06/15 06:26:00;;;;;;;17.25;13.98;;;;;;;;;;1797289;79;25666;-55
2023/06/15 06:28:26;;;;;;;18.07;14.00;;;;;;;;;;1797228;79;25340;-56
2023/06/15 06:30:53;;;;;;;17.23;13.83;;;;;;;;;;1797176;79;27417;-55
2023/06/15 06:33:20;;;;;;;18.70;13.10;;;;;;;;;;1797138;79;25482;-53
2023/06/15 06:35:47;;;;;;;49.85;46.02;;;;;;;;;;1797222;79;25329;-54
2023/06/15 06:38:14;;;;;;;88.12;82.30;;;;;;;;;;1797188;79;25562;-54
2023/06/15 06:40:42;;;;;;;14.45;10.95;;;;;;;;;;1797173;79;25429;-54
2023/06/15 06:43:10;;;;;;;71.42;66.62;;;;;;;;;;1797191;79;28468;-54
2023/06/15 06:45:37;;;;;;;70.30;65.40;;;;;;;;;;1797119;79;25631;-49
2023/06/15 06:48:04;;;;;;;27.20;23.45;;;;;;;;;;1795709;79;25384;-49
2023/06/15 06:50:31;;;;;;;13.45;12.00;;;;;;;;;;1791289;79;25499;-49
2023/06/15 06:53:00;;;;;;;83.58;77.82;;;;;;;;;;1791277;80;25309;-48
2023/06/15 06:55:27;;;;;;;51.77;48.00;;;;;;;;;;1791540;79;27989;-49
2023/06/15 06:57:54;;;;;;;83.37;77.75;;;;;;;;;;1791161;79;25275;-49
2023/06/15 07:00:21;;;;;;;83.05;77.53;;;;;;;;;;1791258;79;25276;-50
2023/06/15 07:02:48;;;;;;;45.15;41.95;;;;;;;;;;1790791;80;25837;-50
2023/06/15 07:05:15;;;;;;;81.57;76.07;;;;;;;;;;1791324;79;25461;-49
2023/06/15 07:07:43;;;;;;;76.35;70.85;;;;;;;;;;1791224;79;27378;-49
2023/06/15 07:10:10;;;;;;;11.18;9.55;;;;;;;;;;1791194;79;25579;-50
2023/06/15 07:12:37;;;;;;;66.53;62.13;;;;;;;;;;1791303;80;25519;-50
2023/06/15 07:15:07;;;;;;;81.63;76.25;;;;;;;;;;1791253;80;25490;-50
2023/06/15 07:17:33;;;;;;;17.57;15.90;;;;;;;;;;1791429;79;25470;-50
2023/06/15 07:20:00;;;;;;;10.75;8.80;;;;;;;;;;1791241;80;27374;-50
2023/06/15 07:22:28;;;;;;;13.10;11.57;;;;;;;;;;1791158;79;25503;-52
2023/06/15 07:24:55;;;;;;;75.05;69.87;;;;;;;;;;1791232;80;25513;-50
2023/06/15 07:27:22;;;;;;;73.80;69.00;;;;;;;;;;1789968;80;26238;-52
2023/06/15 07:29:49;;;;;;;81.02;75.62;;;;;;;;;;1791239;80;25470;-50
2023/06/15 07:32:16;;;;;;;11.45;9.10;;;;;;;;;;1791216;80;29596;-50
2023/06/15 07:34:43;;;;;;;10.78;8.75;;;;;;;;;;1791213;79;25298;-49
2023/06/15 07:37:10;;;;;;;8.80;7.80;;;;;;;;;;1791204;80;25305;-48
2023/06/15 07:39:36;;;;;;;13.75;8.08;;;;;;;;;;1791177;80;25532;-50
2023/06/15 07:42:06;;;;;;;9.48;7.47;;;;;;;;;;1791236;80;25282;-48
2023/06/15 07:44:35;;;;;;;12.18;8.35;;;;;;;;;;1791249;80;27416;-48
2023/06/15 07:47:03;;;;;;;11.05;9.05;;;;;;;;;;1791258;80;25480;-49
2023/06/15 07:49:30;;;;;;;10.32;8.70;;;;;;;;;;1795185;79;25293;-48
2023/06/15 07:52:00;;;;;;;10.60;7.70;;;;;;;;;;1797117;79;25447;-49
2023/06/15 07:54:27;;;;;;;9.48;8.48;;;;;;;;;;1797163;79;25506;-49
2023/06/15 07:56:54;;;;;;;8.45;7.53;;;;;;;;;;1797146;79;27364;-52
2023/06/15 07:59:21;;;;;;;14.40;8.18;;;;;;;;;;1797172;79;25705;-52
2023/06/15 08:01:48;;;;;;;14.15;12.45;;;;;;;;;;1797267;79;25510;-52
2023/06/15 08:04:15;;;;;;;9.10;6.75;;;;;;;;;;1797301;79;25556;-52
2023/06/15 08:06:43;;;;;;;8.68;7.12;;;;;;;;;;1797298;79;25492;-49
2023/06/15 08:09:11;;;;;;;55.12;51.45;;;;;;;;;;1797328;79;27416;-52
2023/06/15 08:11:39;;;;;;;76.80;72.10;;;;;;;;;;1797357;79;25429;-53
2023/06/15 08:14:06;;;;;;;77.85;72.60;;;;;;;;;;1797257;79;25498;-53
2023/06/15 08:16:34;;;;;;;54.53;51.20;;;;;;;;;;1797276;79;25489;-52
2023/06/15 08:19:01;;;;;;;53.17;49.83;;;;;;;;;;1797408;79;25349;-53
2023/06/15 08:21:28;;;;;;;9.13;8.23;;;;;;;;;;1797327;79;27350;-52
2023/06/15 08:23:55;;;;;;;29.57;27.67;;;;;;;;;;1797239;79;25464;-50
2023/06/15 08:26:22;;;;;;;7.83;6.20;;;;;;;;;;1797247;79;25324;-53
2023/06/15 08:28:49;;;;;;;75.32;70.60;;;;;;;;;;1797260;79;26098;-53
2023/06/15 08:31:17;;;;;;;75.45;70.47;;;;;;;;;;1797283;79;25333;-52
2023/06/15 08:33:44;;;;;;;54.83;51.33;;;;;;;;;;1797264;79;27459;-53
2023/06/15 08:36:11;;;;;;;66.20;62.35;;;;;;;;;;1797314;79;25274;-51
2023/06/15 08:38:38;;;;;;;71.87;67.62;;;;;;;;;;1797312;79;25463;-52
2023/06/15 08:41:05;;;;;;;32.95;30.82;;;;;;;;;;1797240;79;25532;-50
2023/06/15 08:43:33;;;;;;;48.95;45.67;;;;;;;;;;1797253;79;25273;-50
2023/06/15 08:46:01;;;;;;;73.00;68.78;;;;;;;;;;1781831;79;27958;-48
2023/06/15 08:48:31;;;;;;;69.50;65.17;;;;;;;;;;1797088;79;25597;-49
2023/06/15 08:50:59;;;;;;;8.85;6.10;;;;;;;;;;1797311;79;25540;-49
2023/06/15 08:53:28;;;;;;;6.75;5.62;;;;;;;;;;1797444;79;25556;-51
2023/06/15 08:55:56;;;;;;;68.60;64.55;;;;;;;;;;1797439;79;25504;-49
2023/06/15 08:58:22;;;;;;;46.35;43.63;;;;;;;;;;1797457;79;27393;-51
2023/06/15 09:00:51;;;;;;;69.60;65.00;;;;;;;;;;1797147;79;25326;-51
2023/06/15 09:03:18;;;;;;;65.45;61.65;;;;;;;;;;1797397;79;25442;-52
2023/06/15 09:05:46;;;;;;;64.03;60.05;;;;;;;;;;1797362;79;25514;-49
2023/06/15 09:08:13;;;;;;;63.68;59.77;;;;;;;;;;1797275;79;25345;-50
2023/06/15 09:10:41;;;;;;;10.88;7.58;;;;;;;;;;1797206;79;27348;-51
2023/06/15 09:13:14;;;;;;;10.80;5.47;;;;;;;;;;1797262;79;27307;-50
2023/06/15 09:15:50;;;;;;;6.33;5.25;;;;;;;;;;1797309;79;25447;-52
2023/06/15 09:18:14;;;;;;;8.00;5.65;;;;;;;;;;1796525;79;25645;-50
2023/06/15 09:20:43;;;;;;;7.25;5.15;;;;;;;;;;1797305;79;25475;-52
2023/06/15 09:23:12;;;;;;;5.90;4.75;;;;;;;;;;1797275;79;27263;-50
2023/06/15 09:25:44;;;;;;;7.55;5.12;;;;;;;;;;1797188;79;25357;-49
2023/06/15 09:28:13;;;;;;;7.33;4.72;;;;;;;;;;1796496;79;25467;-48
2023/06/15 09:30:41;;;;;;;5.42;4.92;;;;;;;;;;1797350;79;25518;-48
2023/06/15 09:33:17;;;;;;;7.90;4.85;;;;;;;;;;1797283;79;25496;-50
2023/06/15 09:36:06;;;;;;;5.20;4.67;;;;;;;;;;1797271;79;27463;-47
2023/06/15 09:38:40;;;;;;;6.00;4.80;;;;;;;;;;1797233;79;25360;-48
2023/06/15 09:41:09;;;;;;;6.20;5.60;;;;;;;;;;1797224;79;25457;-47
2023/06/15 09:43:39;;;;;;;8.03;7.37;;;;;;;;;;1797458;79;25536;-48
2023/06/15 09:46:16;;;;;;;5.67;5.12;;;;;;;;;;1797220;79;25503;-48
2023/06/15 09:48:44;;;;;;;11.12;7.75;;;;;;;;;;1797188;79;27354;-48
2023/06/15 09:51:11;;;;;;;5.87;5.05;;;;;;;;;;1797175;79;25502;-48
2023/06/15 09:53:42;;;;;;;7.92;4.67;;;;;;;;;;1797209;79;25349;-47
2023/06/15 09:56:10;;;;;;;23.83;22.25;;;;;;;;;;1797116;79;25573;-47
2023/06/15 09:58:37;;;;;;;67.47;63.23;;;;;;;;;;1797355;79;25504;-47
2023/06/15 10:01:05;;;;;;;7.42;7.03;;;;;;;;;;1797177;79;27342;-47
2023/06/15 10:03:33;;;;;;;3.67;3.50;;;;;;;;;;1797213;79;27133;-47
2023/06/15 10:06:08;;;;;;;8.13;7.72;;;;;;;;;;1797301;79;25296;-45
2023/06/15 10:08:41;;;;;;;4.42;4.20;;;;;;;;;;1781599;79;26255;-45
2023/06/15 10:11:12;;;;;;;4.25;4.05;;;;;;;;;;1797182;79;25505;-45
2023/06/15 10:13:55;;;;;;;63.20;59.08;;;;;;;;;;1797280;79;28624;-45
2023/06/15 10:16:22;;;;;;;81.65;76.62;;;;;;;;;;1797104;79;25537;-45
2023/06/15 10:18:54;;;;;;;77.32;72.53;;;;;;;;;;1797168;79;25439;-46
2023/06/15 10:21:25;;;;;;;84.67;79.47;;;;;;;;;;1797158;79;27736;-44
2023/06/15 10:23:55;;;;;;;78.75;73.70;;;;;;;;;;1797199;79;25486;-49
2023/06/15 10:26:22;;;;;;;46.60;43.75;;;;;;;;;;1797137;79;29505;-47
2023/06/15 10:29:06;;;;;;;72.97;68.47;;;;;;;;;;1797082;79;25435;-48
2023/06/15 10:31:51;;;;;;;50.63;47.53;;;;;;;;;;1797319;79;25288;-47
2023/06/15 10:34:28;;;;;;;70.00;65.12;;;;;;;;;;1797252;79;25517;-46
2023/06/15 10:37:05;;;;;;;69.63;65.17;;;;;;;;;;1797514;79;25313;-46
2023/06/15 10:39:35;;;;;;;65.32;61.33;;;;;;;;;;1781500;79;27465;-45
2023/06/15 10:42:08;;;;;;;67.85;63.85;;;;;;;;;;1797100;79;25276;-45
2023/06/15 10:44:35;;;;;;;47.60;44.73;;;;;;;;;;1797177;79;25494;-46
2023/06/15 10:47:10;;;;;;;63.35;59.45;;;;;;;;;;1797074;79;25548;-46
2023/06/15 10:49:50;;;;;;;4.12;4.00;;;;;;;;;;1795469;79;25514;-46
2023/06/15 10:52:18;;;;;;;6.50;6.20;;;;;;;;;;1791329;80;27381;-45
2023/06/15 10:54:47;;;;;;;6.53;6.22;;;;;;;;;;1791348;80;33226;-45
2023/06/15 10:57:20;;;;;;;12.65;11.95;;;;;;;;;;1791253;79;25297;-45
2023/06/15 10:59:52;;;;;;;47.55;44.73;;;;;;;;;;1789527;79;25509;-45
2023/06/15 11:02:35;;;;;;;46.50;43.83;;;;;;;;;;1791283;80;25469;-45
2023/06/15 11:05:09;;;;;;;6.22;5.95;;;;;;;;;;1791311;80;28143;-46
2023/06/15 11:07:38;;;;;;;10.40;9.80;;;;;;;;;;1790800;79;25338;-46
2023/06/15 11:10:17;;;;;;;8.55;8.08;;;;;;;;;;1791292;79;25354;-50
2023/06/15 11:12:46;;;;;;;5.90;5.62;;;;;;;;;;1791243;80;26118;-46
2023/06/15 11:15:16;;;;;;;69.82;66.02;;;;;;;;;;1791267;79;25326;-47
2023/06/15 11:17:57;;;;;;;5.97;5.67;;;;;;;;;;1791249;80;27413;-46
2023/06/15 11:20:47;;;;;;;9.90;9.33;;;;;;;;;;1791142;80;25391;-46
2023/06/15 11:23:16;;;;;;;5.50;4.65;;;;;;;;;;1791309;80;25285;-45
2023/06/15 11:25:46;;;;;;;5.25;4.75;;;;;;;;;;1791225;80;25550;-47
2023/06/15 11:28:20;;;;;;;5.60;4.85;;;;;;;;;;1791266;80;25496;-49
2023/06/15 11:30:44;;;;;;;5.85;4.95;;;;;;;;;;1790680;79;27403;-47
2023/06/15 11:33:13;;;;;;;9.75;8.88;;;;;;;;;;1791143;79;25462;-50
2023/06/15 11:35:41;;;;;;;6.92;4.90;;;;;;;;;;1791261;79;25524;-50
2023/06/15 11:38:09;;;;;;;5.50;5.00;;;;;;;;;;1791470;79;25475;-47
2023/06/15 11:40:37;;;;;;;6.42;4.62;;;;;;;;;;1791399;80;25345;-49
2023/06/15 11:43:06;;;;;;;10.08;9.25;;;;;;;;;;1791224;79;29476;-45
2023/06/15 11:45:34;;;;;;;11.88;9.05;;;;;;;;;;1791431;80;25494;-45
2023/06/15 11:48:02;;;;;;;71.47;67.20;;;;;;;;;;1791319;80;25318;-45
2023/06/15 11:50:29;;;;;;;4.80;4.60;;;;;;;;;;1794381;79;26328;-46
2023/06/15 11:53:00;;;;;;;15.03;14.13;;;;;;;;;;1797111;79;25498;-47
2023/06/15 11:55:27;;;;;;;8.83;8.40;;;;;;;;;;1797137;79;27223;-46
2023/06/15 11:57:54;;;;;;;5.35;5.15;;;;;;;;;;1797029;79;25505;-45
2023/06/15 12:00:22;;;;;;;4.95;4.75;;;;;;;;;;1797126;79;25506;-46
2023/06/15 12:02:49;;;;;;;8.45;8.15;;;;;;;;;;1781615;79;25515;-45
2023/06/15 12:05:17;;;;;;;5.47;5.28;;;;;;;;;;1797441;79;25487;-46
2023/06/15 12:07:44;;;;;;;7.55;7.15;;;;;;;;;;1797130;79;29288;-47
2023/06/15 12:10:11;;;;;;;4.43;4.23;;;;;;;;;;1797370;79;25471;-46
2023/06/15 12:12:40;;;;;;;8.38;7.97;;;;;;;;;;1797276;79;25502;-46
2023/06/15 12:15:08;;;;;;;4.22;4.12;;;;;;;;;;1797078;79;25377;-46
2023/06/15 12:17:36;;;;;;;50.38;47.43;;;;;;;;;;1797241;79;25441;-46
2023/06/15 12:20:09;;;;;;;4.85;4.70;;;;;;;;;;1797123;79;27271;-46
2023/06/15 12:22:43;;;;;;;4.58;4.47;;;;;;;;;;1797026;79;25322;-49
2023/06/15 12:25:11;;;;;;;9.18;8.88;;;;;;;;;;1797150;79;25300;-46
2023/06/15 12:27:45;;;;;;;4.22;4.12;;;;;;;;;;1796985;79;25347;-47
2023/06/15 12:30:15;;;;;;;5.25;5.05;;;;;;;;;;1797093;79;25334;-47
2023/06/15 12:32:46;;;;;;;8.00;7.70;;;;;;;;;;1797104;79;27015;-47
2023/06/15 12:35:38;;;;;;;4.67;4.58;;;;;;;;;;1797139;79;25448;-48
2023/06/15 12:38:10;;;;;;;7.87;7.58;;;;;;;;;;1797119;79;25369;-47
2023/06/15 12:40:47;;;;;;;4.67;4.53;;;;;;;;;;1797073;79;25451;-48
2023/06/15 12:43:21;;;;;;;4.12;4.03;;;;;;;;;;1797302;79;25433;-47
2023/06/15 12:45:44;;;;;;;7.53;7.22;;;;;;;;;;1795253;79;27216;-47
2023/06/15 12:48:12;;;;;;;5.45;5.25;;;;;;;;;;1797228;79;25498;-47
2023/06/15 12:50:40;;;;;;;7.95;7.65;;;;;;;;;;1794502;79;25393;-47
2023/06/15 12:53:07;;;;;;;6.42;6.22;;;;;;;;;;1791363;79;25471;-46
2023/06/15 12:55:34;;;;;;;8.43;8.13;;;;;;;;;;1791532;80;25488;-46
2023/06/15 12:58:03;;;;;;;4.67;4.47;;;;;;;;;;1791623;80;27147;-46
2023/06/15 13:00:31;;;;;;;8.23;7.92;;;;;;;;;;1791265;79;25441;-45
2023/06/15 13:02:58;;;;;;;;;;;;;;;;;;1794008;80;25476;-45
2023/06/15 13:05:28;;;;;;;6.62;6.42;;;;;;;;;;1791353;80;26213;-47
2023/06/15 13:07:56;;;;;;;4.47;4.35;;;;;;;;;;1791383;79;25441;-44
2023/06/15 13:10:23;;;;;;;;;;;;;;;;;;1794010;80;27572;-45
2023/06/15 13:12:50;;;;;;;6.28;6.08;;;;;;;;;;1791376;79;25369;-48
2023/06/15 13:15:17;;;;;;;8.05;7.75;;;;;;;;;;1791575;80;25525;-46
2023/06/15 13:17:45;;;;;;;4.00;3.90;;;;;;;;;;1791467;79;25512;-46
2023/06/15 13:20:13;;;;;;;6.28;6.08;;;;;;;;;;1791490;79;25472;-46
2023/06/15 13:22:41;;;;;;;6.15;5.92;;;;;;;;;;1791425;80;27232;-47
2023/06/15 13:25:10;;;;;;;;;;;;;;;;;;1793874;80;25300;-46
2023/06/15 13:27:37;;;;;;;4.10;4.00;;;;;;;;;;1791323;80;25538;-45
2023/06/15 13:30:07;;;;;;;3.67;3.58;;;;;;;;;;1791313;80;25315;-46
2023/06/15 13:32:37;;;;;;;6.80;6.50;;;;;;;;;;1791373;80;25438;-46
2023/06/15 13:35:07;;;;;;;9.00;8.55;;;;;;;;;;1791325;80;27235;-46
2023/06/15 13:37:36;;;;;;;10.50;9.93;;;;;;;;;;1791225;80;25347;-45
2023/06/15 13:40:06;;;;;;;5.35;5.15;;;;;;;;;;1791343;80;25313;-45
2023/06/15 13:42:35;;;;;;;5.17;4.97;;;;;;;;;;1791290;80;25864;-46
2023/06/15 13:45:08;;;;;;;4.53;4.40;;;;;;;;;;1791345;80;25459;-46
2023/06/15 13:47:37;;;;;;;6.40;6.20;;;;;;;;;;1791339;79;27132;-45
2023/06/15 13:50:06;;;;;;;7.17;6.90;;;;;;;;;;1791127;79;25523;-46
2023/06/15 13:52:34;;;;;;;4.05;3.95;;;;;;;;;;1791357;79;25354;-46
2023/06/15 13:55:02;;;;;;;5.40;5.20;;;;;;;;;;1791284;80;25496;-45
2023/06/15 13:57:29;;;;;;;4.42;4.33;;;;;;;;;;1791365;80;25451;-46
2023/06/15 13:59:56;;;;;;;3.85;3.75;;;;;;;;;;1791350;80;27775;-45
2023/06/15 14:02:23;;;;;;;3.35;3.25;;;;;;;;;;1791214;79;25365;-46
2023/06/15 14:04:50;;;;;;;2.90;2.80;;;;;;;;;;1791492;79;25447;-46
2023/06/15 14:07:17;;;;;;;2.80;2.70;;;;;;;;;;1791466;79;25915;-46
2023/06/15 14:09:43;;;;;;;3.58;3.47;;;;;;;;;;1791417;80;25435;-45
2023/06/15 14:12:11;;;;;;;3.50;3.40;;;;;;;;;;1791447;80;27180;-46
2023/06/15 14:14:39;;;;;;;2.65;2.60;;;;;;;;;;1791251;80;25795;-46
2023/06/15 14:17:10;;;;;;;;;;;;;;;;;;1794005;80;25483;-46
2023/06/15 14:19:39;;;;;;;4.70;4.60;;;;;;;;;;1791328;80;25313;-46
2023/06/15 14:22:07;;;;;;;2.60;2.55;;;;;;;;;;1791372;80;25494;-45
2023/06/15 14:24:34;;;;;;;3.47;3.37;;;;;;;;;;1791339;79;27255;-46
2023/06/15 14:27:03;;;;;;;3.15;3.05;;;;;;;;;;1791346;80;27113;-46
2023/06/15 14:29:29;;;;;;;3.35;3.25;;;;;;;;;;1791265;80;25450;-47
2023/06/15 14:31:56;;;;;;;4.15;4.05;;;;;;;;;;1791315;79;33123;-48
2023/06/15 14:34:23;;;;;;;4.70;4.53;;;;;;;;;;1791469;80;25435;-47
2023/06/15 14:36:51;;;;;;;5.92;5.72;;;;;;;;;;1791447;80;27221;-47